Sheboygan, Wisconsin
Current Conditions -  °F | °C
As of 8:53 AM on Wednesday 26 Nov 2014 (Local Time) from KSBM Reporting Station
Overcast Overcast  
Wind Chill: 14°   Ceiling: 1500
Heat Index: 22°   Visibility: 8mi
Dew Point: 17°   Wind: 6mph
Humidity: 82%   Direction: 340°NNW
Pressure: 30.16"   Gusts: NA
Location:  43.76°N, 87.72°W
Report Text: KSBM 261453Z AUTO 34005KT 8SM OVC015 M06/M08 A3016 RMK AO2 SLP225 T10561083 53006
Loading
Personal Weather Stations






























Interactive Weather Map New forecast layout! Learn more

10-Day Weather Forecast

Advertisements
Track Severe Weather on mobile